> <
  • 1
  • 2

Novidades

  • Temos o prazer de lhe apresentar… Ler mais +
  • Está disponível a secção Multimédia no… Ler mais +
  • 1
[source: ADDS]
METAR
LPPR 192330Z 02005KT CAVOK 09/06 Q1021 =
TAF
TAF LPPR 192300Z 2000/2024 02005KT CAVOK BECMG 2003/2006 08005KT BECMG 2012/2015 35012KT BECMG 2018/2021 04008KT =

contactos